Time;durP1;ratioP1;P1;durP2;ratioP2;P2;SDS_P1;SDS_P2;PMS_P1;PMS_P2;Temp;Humidity;BMP_temperature;BMP_pressure;BME280_temperature;BME280_humidity;BME280_pressure;Samples;Min_cycle;Max_cycle;Signal;HPM_P1;HPM_P2
2021/05/06 00:02:44;;;;;;;3.35;3.05;;;;;;;;;;5057503;28;20199;-82
2021/05/06 00:08:08;;;;;;;2.47;2.33;;;;;;;;;;5027302;28;20266;-82
2021/05/06 00:30:19;;;;;;;7.13;2.53;;;;;;;;;;5038154;28;20273;-82
2021/05/06 00:32:54;;;;;;;4.93;3.97;;;;;;;;;;5038031;28;20183;-82
2021/05/06 00:35:21;;;;;;;2.75;2.55;;;;;;;;;;5037869;28;20202;-82
2021/05/06 00:37:57;;;;;;;3.47;3.17;;;;;;;;;;5037559;28;20293;-82
2021/05/06 00:40:29;;;;;;;4.72;2.40;;;;;;;;;;5037954;28;20222;-82
2021/05/06 00:43:30;;;;;;;3.25;2.95;;;;;;;;;;5037504;28;20202;-82
2021/05/06 00:46:28;;;;;;;4.72;3.53;;;;;;;;;;5037683;28;20202;-82
2021/05/06 00:54:55;;;;;;;3.50;2.97;;;;;;;;;;5001717;28;20610;-82
2021/05/06 00:57:28;;;;;;;3.47;3.17;;;;;;;;;;5037798;28;20238;-82
2021/05/06 01:05:28;;;;;;;4.25;3.08;;;;;;;;;;5037007;28;20217;-82
2021/05/06 01:08:00;;;;;;;3.13;2.75;;;;;;;;;;5037124;28;20587;-82
2021/05/06 01:10:42;;;;;;;4.22;3.20;;;;;;;;;;5037103;28;20219;-82
2021/05/06 01:13:11;;;;;;;7.32;4.03;;;;;;;;;;5037313;28;20206;-82
2021/05/06 01:15:38;;;;;;;3.80;3.35;;;;;;;;;;5036743;28;20209;-82
2021/05/06 01:18:05;;;;;;;3.20;2.90;;;;;;;;;;5037112;28;20202;-82
2021/05/06 01:20:32;;;;;;;3.53;3.22;;;;;;;;;;5036383;28;20225;-82
2021/05/06 01:23:00;;;;;;;4.93;3.75;;;;;;;;;;5037042;28;20202;-82
2021/05/06 01:25:27;;;;;;;3.35;3.08;;;;;;;;;;5037005;28;20214;-82
2021/05/06 01:27:59;;;;;;;4.60;4.15;;;;;;;;;;5036736;28;20206;-82
2021/05/06 01:30:33;;;;;;;4.18;3.80;;;;;;;;;;5036374;28;20226;-82
2021/05/06 01:33:15;;;;;;;6.82;3.30;;;;;;;;;;5035720;28;20213;-82
2021/05/06 01:35:48;;;;;;;3.22;2.85;;;;;;;;;;5036012;28;20681;-82
2021/05/06 01:38:38;;;;;;;3.42;3.10;;;;;;;;;;5036976;28;20202;-82
2021/05/06 01:41:22;;;;;;;4.00;3.30;;;;;;;;;;5036691;28;20226;-82
2021/05/06 01:43:57;;;;;;;3.05;2.80;;;;;;;;;;5036089;28;20194;-82
2021/05/06 01:57:35;;;;;;;3.63;3.33;;;;;;;;;;5037112;28;20272;-82
2021/05/06 02:00:06;;;;;;;5.43;3.28;;;;;;;;;;5036745;28;20213;-82
2021/05/06 02:02:34;;;;;;;5.78;3.38;;;;;;;;;;5038801;28;20202;-82
2021/05/06 02:05:00;;;;;;;3.28;2.90;;;;;;;;;;5040043;28;20210;-82
2021/05/06 02:07:27;;;;;;;3.38;3.17;;;;;;;;;;5039576;28;20276;-82
2021/05/06 02:09:55;;;;;;;4.57;2.85;;;;;;;;;;5039723;28;20290;-82
2021/05/06 02:12:22;;;;;;;3.72;2.92;;;;;;;;;;5038150;28;20602;-81
2021/05/06 02:14:52;;;;;;;4.20;3.78;;;;;;;;;;5038806;28;20245;-81
2021/05/06 02:17:19;;;;;;;3.38;2.88;;;;;;;;;;5038440;28;20657;-82
2021/05/06 02:19:48;;;;;;;3.70;3.30;;;;;;;;;;5038593;28;20199;-81
2021/05/06 02:22:16;;;;;;;4.00;3.70;;;;;;;;;;5039244;28;20649;-82
2021/05/06 02:24:45;;;;;;;3.53;3.22;;;;;;;;;;5038415;28;20206;-82
2021/05/06 02:27:13;;;;;;;2.92;2.67;;;;;;;;;;5037091;28;20661;-82
2021/05/06 02:29:40;;;;;;;3.53;2.75;;;;;;;;;;5038362;28;20202;-81
2021/05/06 02:32:07;;;;;;;3.35;2.92;;;;;;;;;;5038659;28;20245;-81
2021/05/06 02:34:34;;;;;;;4.97;3.22;;;;;;;;;;5039159;28;20241;-82
2021/05/06 02:37:01;;;;;;;3.22;2.72;;;;;;;;;;5039436;28;20245;-82
2021/05/06 02:39:28;;;;;;;4.10;3.40;;;;;;;;;;5038070;28;20228;-82
2021/05/06 02:41:55;;;;;;;5.82;4.45;;;;;;;;;;5038749;28;20226;-81
2021/05/06 02:44:22;;;;;;;4.68;3.33;;;;;;;;;;5037788;28;20684;-82
2021/05/06 02:46:49;;;;;;;4.38;3.05;;;;;;;;;;5038430;28;20213;-81
2021/05/06 02:49:16;;;;;;;3.00;2.70;;;;;;;;;;5038101;28;20785;-81
2021/05/06 02:51:47;;;;;;;3.40;2.63;;;;;;;;;;5037742;28;20222;-81
2021/05/06 02:54:14;;;;;;;3.25;3.00;;;;;;;;;;5038599;28;20226;-81
2021/05/06 02:56:47;;;;;;;3.10;2.70;;;;;;;;;;5036358;28;20351;-81
2021/05/06 02:59:33;;;;;;;3.38;3.17;;;;;;;;;;5036996;28;20676;-81
2021/05/06 03:04:46;;;;;;;3.17;2.88;;;;;;;;;;5022747;28;20703;-81
2021/05/06 03:07:15;;;;;;;2.42;2.22;;;;;;;;;;5037712;28;20297;-81
2021/05/06 03:09:55;;;;;;;4.72;3.83;;;;;;;;;;5037692;28;20206;-82
2021/05/06 03:12:34;;;;;;;3.40;3.13;;;;;;;;;;5037047;28;20222;-81
2021/05/06 03:23:18;;;;;;;3.03;2.72;;;;;;;;;;5037987;28;20281;-82
2021/05/06 03:25:45;;;;;;;2.88;2.67;;;;;;;;;;5038974;28;20202;-81
2021/05/06 03:28:14;;;;;;;3.03;2.83;;;;;;;;;;5037403;28;20194;-82
2021/05/06 03:41:49;;;;;;;2.65;2.45;;;;;;;;;;5036608;28;20220;-81
2021/05/06 03:44:32;;;;;;;4.68;2.45;;;;;;;;;;5037543;28;20631;-80
2021/05/06 04:17:52;;;;;;;3.92;2.85;;;;;;;;;;5037474;28;20686;-81
2021/05/06 04:25:58;;;;;;;3.67;2.28;;;;;;;;;;5038909;28;20202;-80
2021/05/06 04:31:25;;;;;;;2.38;2.17;;;;;;;;;;5038556;28;20229;-80
2021/05/06 04:36:47;;;;;;;3.45;2.30;;;;;;;;;;5038264;28;20595;-81
2021/05/06 04:39:17;;;;;;;2.88;2.38;;;;;;;;;;5039873;28;20206;-81
2021/05/06 04:41:48;;;;;;;2.65;2.35;;;;;;;;;;5041645;28;20583;-81
2021/05/06 04:55:11;;;;;;;2.53;2.33;;;;;;;;;;5042077;28;20233;-82
2021/05/06 05:03:36;;;;;;;1.88;1.77;;;;;;;;;;5040260;28;20287;-82
2021/05/06 05:06:03;;;;;;;3.00;2.00;;;;;;;;;;5040714;28;20734;-81
2021/05/06 05:08:33;;;;;;;2.47;2.05;;;;;;;;;;5040577;28;20240;-82
2021/05/06 05:19:44;;;;;;;3.22;2.20;;;;;;;;;;5042796;28;20193;-80
2021/05/06 05:25:00;;;;;;;1.92;1.83;;;;;;;;;;5044517;28;20256;-81
2021/05/06 05:27:28;;;;;;;2.67;2.25;;;;;;;;;;5044884;28;20301;-81
2021/05/06 05:29:55;;;;;;;3.55;2.00;;;;;;;;;;5043792;28;20214;-80
2021/05/06 05:32:22;;;;;;;5.65;1.90;;;;;;;;;;5043827;28;20268;-81
2021/05/06 05:34:55;;;;;;;2.67;2.08;;;;;;;;;;5043973;28;20206;-80
2021/05/06 05:37:22;;;;;;;2.20;2.00;;;;;;;;;;5043884;28;20610;-81
2021/05/06 05:42:50;;;;;;;3.28;1.92;;;;;;;;;;5028550;28;20205;-81
2021/05/06 05:45:44;;;;;;;2.88;1.67;;;;;;;;;;5044435;28;20201;-81
2021/05/06 05:56:43;;;;;;;2.58;2.38;;;;;;;;;;4962746;29;20324;-81
2021/05/06 05:59:11;;;;;;;2.53;1.65;;;;;;;;;;4963812;28;20201;-81
2021/05/06 06:01:38;;;;;;;4.40;2.03;;;;;;;;;;4999364;28;20222;-81
2021/05/06 06:04:05;;;;;;;2.05;1.88;;;;;;;;;;5044964;28;20209;-81
2021/05/06 06:06:32;;;;;;;2.15;2.00;;;;;;;;;;5046409;28;20194;-81
2021/05/06 06:08:59;;;;;;;2.28;1.77;;;;;;;;;;5044869;28;20203;-82
2021/05/06 06:11:25;;;;;;;5.80;1.83;;;;;;;;;;5044248;28;20712;-81
2021/05/06 06:13:54;;;;;;;3.22;2.17;;;;;;;;;;5043214;28;20202;-81
2021/05/06 06:16:23;;;;;;;1.73;1.63;;;;;;;;;;5043574;28;20618;-81
2021/05/06 06:18:52;;;;;;;6.55;2.13;;;;;;;;;;5044028;28;20213;-82
2021/05/06 06:21:22;;;;;;;1.80;1.70;;;;;;;;;;5044455;28;20218;-81
2021/05/06 06:23:50;;;;;;;2.78;1.75;;;;;;;;;;5044338;28;20236;-81
2021/05/06 06:26:17;;;;;;;1.85;1.75;;;;;;;;;;5043991;28;20207;-81
2021/05/06 06:28:45;;;;;;;3.05;1.60;;;;;;;;;;5044653;28;20570;-81
2021/05/06 06:31:16;;;;;;;2.88;1.80;;;;;;;;;;5044834;28;20325;-81
2021/05/06 06:33:43;;;;;;;2.22;1.60;;;;;;;;;;5044533;28;20206;-82
2021/05/06 06:36:11;;;;;;;2.30;1.50;;;;;;;;;;5044026;28;20222;-81
2021/05/06 06:38:38;;;;;;;2.00;1.48;;;;;;;;;;5043807;28;20210;-82
2021/05/06 06:41:08;;;;;;;1.67;1.55;;;;;;;;;;5046414;28;20222;-81
2021/05/06 06:43:35;;;;;;;1.83;1.73;;;;;;;;;;5061426;28;20201;-81
2021/05/06 06:46:04;;;;;;;1.75;1.65;;;;;;;;;;5060870;28;20202;-81
2021/05/06 06:48:31;;;;;;;1.92;1.70;;;;;;;;;;5061393;28;20198;-81
2021/05/06 06:50:58;;;;;;;2.97;2.50;;;;;;;;;;5061882;28;20225;-81
2021/05/06 06:53:25;;;;;;;3.25;1.55;;;;;;;;;;5061233;28;20208;-81
2021/05/06 06:55:52;;;;;;;2.03;1.40;;;;;;;;;;5060569;28;20218;-81
2021/05/06 06:58:19;;;;;;;4.55;1.40;;;;;;;;;;5059568;28;20198;-80
2021/05/06 07:00:47;;;;;;;2.08;1.88;;;;;;;;;;5059063;28;20248;-81
2021/05/06 07:03:14;;;;;;;2.17;1.80;;;;;;;;;;5060280;28;20259;-81
2021/05/06 07:05:42;;;;;;;3.55;2.20;;;;;;;;;;5058604;28;20202;-80
2021/05/06 07:08:15;;;;;;;1.92;1.60;;;;;;;;;;5060132;28;20205;-81
2021/05/06 07:10:43;;;;;;;2.47;1.40;;;;;;;;;;5058455;28;20225;-81
2021/05/06 07:13:11;;;;;;;1.70;1.42;;;;;;;;;;5058038;28;20212;-81
2021/05/06 07:15:38;;;;;;;2.17;1.50;;;;;;;;;;5058907;28;20656;-80
2021/05/06 07:18:08;;;;;;;3.00;1.80;;;;;;;;;;5059020;28;20213;-81
2021/05/06 07:20:35;;;;;;;2.92;1.80;;;;;;;;;;5059344;28;20308;-80
2021/05/06 07:23:02;;;;;;;2.42;1.45;;;;;;;;;;5058151;28;20305;-81
2021/05/06 07:25:30;;;;;;;1.70;1.17;;;;;;;;;;5058637;28;20228;-81
2021/05/06 07:28:16;;;;;;;2.75;1.50;;;;;;;;;;5057140;28;20213;-81
2021/05/06 07:30:43;;;;;;;3.25;2.17;;;;;;;;;;5055846;28;20320;-81
2021/05/06 07:33:10;;;;;;;3.70;1.50;;;;;;;;;;5055859;28;20189;-81
2021/05/06 07:35:37;;;;;;;2.25;1.70;;;;;;;;;;5056557;28;20206;-81
2021/05/06 07:38:04;;;;;;;2.35;1.70;;;;;;;;;;5055990;28;20201;-81
2021/05/06 07:40:33;;;;;;;2.13;1.52;;;;;;;;;;5056242;28;20271;-81
2021/05/06 07:43:00;;;;;;;1.85;1.30;;;;;;;;;;5056055;28;20183;-81
2021/05/06 07:45:27;;;;;;;1.85;1.17;;;;;;;;;;5056518;28;20231;-82
2021/05/06 07:47:54;;;;;;;1.50;1.40;;;;;;;;;;5054611;28;20284;-81
2021/05/06 07:50:22;;;;;;;2.47;1.30;;;;;;;;;;5055898;28;20232;-82
2021/05/06 07:52:51;;;;;;;2.88;1.60;;;;;;;;;;5054868;28;20690;-81
2021/05/06 07:55:18;;;;;;;1.50;1.40;;;;;;;;;;5055108;28;20766;-81
2021/05/06 07:57:46;;;;;;;1.30;1.20;;;;;;;;;;5054448;28;20224;-81
2021/05/06 08:00:19;;;;;;;1.75;1.65;;;;;;;;;;5054676;28;20232;-81
2021/05/06 08:02:47;;;;;;;1.25;1.15;;;;;;;;;;5056673;28;20206;-82
2021/05/06 08:05:15;;;;;;;4.57;1.33;;;;;;;;;;5054084;28;20194;-83
2021/05/06 08:07:42;;;;;;;1.77;1.40;;;;;;;;;;5053503;28;20201;-82
2021/05/06 08:10:11;;;;;;;1.95;1.60;;;;;;;;;;5055138;28;20248;-82
2021/05/06 08:12:38;;;;;;;1.77;1.67;;;;;;;;;;5054743;28;20255;-82
2021/05/06 08:15:08;;;;;;;2.15;1.80;;;;;;;;;;5058341;28;20197;-81
2021/05/06 08:17:35;;;;;;;2.00;1.80;;;;;;;;;;5057525;28;20232;-81
2021/05/06 08:20:04;;;;;;;1.60;1.50;;;;;;;;;;5057675;28;20201;-80
2021/05/06 08:22:31;;;;;;;1.88;1.65;;;;;;;;;;5057417;28;20198;-81
2021/05/06 08:24:58;;;;;;;2.70;2.08;;;;;;;;;;5057344;28;20694;-82
2021/05/06 08:27:25;;;;;;;5.15;2.00;;;;;;;;;;5056462;28;20212;-82
2021/05/06 08:29:52;;;;;;;3.95;2.10;;;;;;;;;;5057479;28;20731;-81
2021/05/06 08:32:19;;;;;;;2.17;1.85;;;;;;;;;;5056922;28;20237;-81
2021/05/06 08:34:46;;;;;;;1.73;1.60;;;;;;;;;;5057065;28;20210;-82
2021/05/06 08:37:13;;;;;;;2.00;1.90;;;;;;;;;;5057482;28;20599;-82
2021/05/06 08:39:40;;;;;;;2.78;2.50;;;;;;;;;;5058648;28;20200;-82
2021/05/06 08:42:08;;;;;;;2.90;2.63;;;;;;;;;;5056871;28;20309;-81
2021/05/06 08:44:37;;;;;;;3.50;2.53;;;;;;;;;;5057122;28;20367;-82
2021/05/06 08:47:05;;;;;;;2.70;2.50;;;;;;;;;;5057744;28;20540;-82
2021/05/06 08:49:34;;;;;;;3.58;2.58;;;;;;;;;;5057171;28;20300;-82
2021/05/06 08:52:03;;;;;;;2.30;2.10;;;;;;;;;;5057030;28;20222;-81
2021/05/06 08:54:30;;;;;;;3.05;2.42;;;;;;;;;;5056881;28;20194;-81
2021/05/06 08:56:58;;;;;;;4.25;2.30;;;;;;;;;;5056751;28;20234;-82
2021/05/06 08:59:25;;;;;;;2.42;2.22;;;;;;;;;;5056746;28;20202;-82
2021/05/06 09:01:52;;;;;;;4.25;2.10;;;;;;;;;;5057049;28;20218;-82
2021/05/06 09:04:19;;;;;;;2.30;1.90;;;;;;;;;;5056854;28;20290;-81
2021/05/06 09:06:55;;;;;;;3.03;2.50;;;;;;;;;;5057551;28;20209;-83
2021/05/06 09:09:22;;;;;;;4.97;2.30;;;;;;;;;;5057065;28;20201;-82
2021/05/06 09:11:54;;;;;;;2.60;2.03;;;;;;;;;;5057152;28;20225;-82
2021/05/06 09:14:36;;;;;;;1.95;1.67;;;;;;;;;;5057633;28;20233;-82
2021/05/06 09:17:04;;;;;;;2.65;2.00;;;;;;;;;;5057046;28;20221;-82
2021/05/06 09:19:31;;;;;;;2.13;1.90;;;;;;;;;;5057057;28;20206;-83
2021/05/06 09:21:59;;;;;;;2.72;1.80;;;;;;;;;;5057112;28;20652;-83
2021/05/06 09:24:35;;;;;;;1.90;1.80;;;;;;;;;;5057313;28;20198;-83
2021/05/06 09:27:04;;;;;;;2.08;1.88;;;;;;;;;;5056955;28;20579;-82
2021/05/06 09:29:35;;;;;;;2.47;2.15;;;;;;;;;;5055753;28;20209;-82
2021/05/06 09:32:15;;;;;;;2.35;2.15;;;;;;;;;;5055864;28;20668;-82
2021/05/06 09:34:43;;;;;;;2.70;2.35;;;;;;;;;;5056277;28;20683;-83
2021/05/06 09:37:22;;;;;;;2.22;1.90;;;;;;;;;;5057775;28;20225;-83
2021/05/06 09:39:57;;;;;;;1.80;1.63;;;;;;;;;;5057591;28;20581;-83
2021/05/06 09:42:37;;;;;;;2.35;2.20;;;;;;;;;;5056859;28;20204;-83
2021/05/06 09:45:06;;;;;;;2.13;1.90;;;;;;;;;;5057556;28;20229;-83
2021/05/06 09:47:32;;;;;;;4.78;2.10;;;;;;;;;;5056636;28;20664;-83
2021/05/06 09:49:59;;;;;;;2.58;2.40;;;;;;;;;;5057764;28;20220;-83
2021/05/06 09:52:27;;;;;;;2.25;1.95;;;;;;;;;;5056390;28;20201;-83
2021/05/06 09:54:55;;;;;;;2.33;2.13;;;;;;;;;;5057608;28;20571;-83
2021/05/06 09:57:27;;;;;;;1.70;1.60;;;;;;;;;;5056480;28;20221;-83
2021/05/06 10:00:14;;;;;;;3.22;2.38;;;;;;;;;;5056715;28;20201;-83
2021/05/06 10:02:41;;;;;;;2.33;2.00;;;;;;;;;;5056682;28;20289;-83
2021/05/06 10:05:11;;;;;;;2.00;1.90;;;;;;;;;;5057146;28;20202;-83
2021/05/06 10:07:53;;;;;;;2.20;2.00;;;;;;;;;;5039255;28;20296;-84
2021/05/06 10:10:21;;;;;;;2.90;2.70;;;;;;;;;;5056667;28;20691;-83
2021/05/06 10:12:48;;;;;;;3.47;2.55;;;;;;;;;;5056568;28;20209;-83
2021/05/06 10:15:15;;;;;;;2.53;2.35;;;;;;;;;;5057313;28;20270;-83
2021/05/06 10:17:42;;;;;;;2.35;2.03;;;;;;;;;;5056818;28;20221;-83
2021/05/06 10:20:10;;;;;;;2.50;2.30;;;;;;;;;;5057577;28;20569;-83
2021/05/06 10:22:38;;;;;;;2.72;2.50;;;;;;;;;;5057301;28;20205;-82
2021/05/06 10:25:08;;;;;;;2.33;2.13;;;;;;;;;;5056360;28;20206;-82
2021/05/06 10:27:35;;;;;;;3.53;2.80;;;;;;;;;;5056630;28;20563;-83
2021/05/06 10:30:04;;;;;;;2.83;2.53;;;;;;;;;;5057427;28;20205;-84
2021/05/06 10:32:33;;;;;;;2.17;1.95;;;;;;;;;;5056579;28;20206;-83
2021/05/06 10:35:04;;;;;;;2.25;2.10;;;;;;;;;;5056287;28;20208;-83
2021/05/06 10:37:34;;;;;;;1.92;1.83;;;;;;;;;;5056570;28;20665;-83
2021/05/06 10:40:06;;;;;;;2.97;2.78;;;;;;;;;;5056294;28;20216;-83
2021/05/06 10:42:35;;;;;;;2.67;2.40;;;;;;;;;;5056879;28;20205;-83
2021/05/06 10:45:22;;;;;;;3.20;2.78;;;;;;;;;;5056242;28;20655;-83
2021/05/06 10:47:54;;;;;;;3.38;2.30;;;;;;;;;;5044597;28;20287;-84
2021/05/06 10:50:24;;;;;;;2.53;2.33;;;;;;;;;;5058375;28;20213;-84
2021/05/06 10:52:53;;;;;;;2.65;2.45;;;;;;;;;;5058587;28;20720;-84
2021/05/06 10:55:47;;;;;;;2.35;2.15;;;;;;;;;;5058452;28;20229;-84
2021/05/06 10:58:42;;;;;;;3.72;2.17;;;;;;;;;;5058042;28;20711;-85
2021/05/06 11:01:23;;;;;;;2.28;2.13;;;;;;;;;;5058656;28;20230;-85
2021/05/06 11:04:11;;;;;;;2.30;2.10;;;;;;;;;;5057517;28;20690;-84
2021/05/06 11:06:44;;;;;;;2.40;2.28;;;;;;;;;;5055983;28;20201;-84
2021/05/06 11:09:56;;;;;;;2.10;1.90;;;;;;;;;;5057959;28;20220;-85
2021/05/06 11:12:38;;;;;;;2.30;2.20;;;;;;;;;;5057477;28;20217;-84
2021/05/06 11:15:24;;;;;;;2.95;1.90;;;;;;;;;;5057682;28;20211;-84
2021/05/06 11:17:52;;;;;;;2.00;1.90;;;;;;;;;;5057520;28;20603;-84
2021/05/06 11:20:50;;;;;;;2.03;1.92;;;;;;;;;;5057782;28;20659;-84
2021/05/06 11:23:29;;;;;;;2.30;2.10;;;;;;;;;;5056796;28;20411;-84
2021/05/06 11:26:11;;;;;;;1.90;1.80;;;;;;;;;;5057874;28;20209;-83
2021/05/06 11:28:52;;;;;;;3.35;2.10;;;;;;;;;;5057237;28;20267;-85
2021/05/06 11:31:49;;;;;;;1.77;1.60;;;;;;;;;;5056829;28;20304;-84
2021/05/06 11:34:38;;;;;;;2.83;1.90;;;;;;;;;;4975779;28;20434;-85
2021/05/06 11:37:19;;;;;;;2.55;2.30;;;;;;;;;;5049642;28;20201;-86
2021/05/06 11:39:50;;;;;;;1.90;1.70;;;;;;;;;;5057663;28;20213;-84
2021/05/06 11:42:17;;;;;;;1.85;1.75;;;;;;;;;;5056957;28;20221;-84
2021/05/06 11:45:24;;;;;;;2.53;2.20;;;;;;;;;;5057291;28;20193;-84
2021/05/06 11:47:52;;;;;;;2.10;2.00;;;;;;;;;;5058547;28;20699;-85
2021/05/06 11:50:29;;;;;;;2.13;1.98;;;;;;;;;;5062035;28;20214;-83
2021/05/06 11:52:58;;;;;;;2.30;2.10;;;;;;;;;;5060995;28;20200;-84
2021/05/06 11:55:35;;;;;;;2.78;2.22;;;;;;;;;;5061846;28;20300;-84
2021/05/06 11:58:02;;;;;;;2.63;2.42;;;;;;;;;;5060488;28;20225;-84
2021/05/06 12:00:31;;;;;;;2.05;1.95;;;;;;;;;;5060945;28;20237;-85
2021/05/06 12:03:01;;;;;;;2.53;2.33;;;;;;;;;;5061334;28;20660;-84
2021/05/06 12:05:52;;;;;;;2.10;2.00;;;;;;;;;;5061806;28;20213;-85
2021/05/06 12:08:20;;;;;;;4.22;2.60;;;;;;;;;;5061247;28;20204;-84
2021/05/06 12:10:47;;;;;;;2.10;2.00;;;;;;;;;;5061430;28;20217;-85
2021/05/06 12:13:16;;;;;;;2.40;2.20;;;;;;;;;;5061350;28;20201;-85
2021/05/06 12:15:44;;;;;;;3.13;2.10;;;;;;;;;;5061153;28;20806;-84
2021/05/06 12:18:21;;;;;;;2.22;2.03;;;;;;;;;;5060656;28;20221;-85
2021/05/06 12:21:00;;;;;;;2.20;2.10;;;;;;;;;;5060717;28;20226;-84
2021/05/06 12:23:27;;;;;;;2.13;1.98;;;;;;;;;;5060884;28;20224;-84
2021/05/06 12:25:53;;;;;;;2.00;1.90;;;;;;;;;;5060501;28;20212;-84
2021/05/06 12:28:20;;;;;;;2.40;2.03;;;;;;;;;;5061288;28;20217;-84
2021/05/06 12:30:48;;;;;;;2.38;2.00;;;;;;;;;;5060633;28;20697;-84
2021/05/06 12:33:29;;;;;;;1.90;1.80;;;;;;;;;;5058647;28;20190;-84
2021/05/06 12:35:56;;;;;;;2.85;2.10;;;;;;;;;;5059117;28;20579;-84
2021/05/06 12:38:23;;;;;;;2.17;2.03;;;;;;;;;;5059642;28;20225;-84
2021/05/06 12:40:51;;;;;;;2.70;2.10;;;;;;;;;;5059269;28;20217;-84
2021/05/06 12:43:28;;;;;;;2.92;1.77;;;;;;;;;;5059225;28;20197;-85
2021/05/06 12:46:09;;;;;;;2.38;2.17;;;;;;;;;;5059519;28;20205;-85
2021/05/06 12:48:45;;;;;;;2.63;1.90;;;;;;;;;;5059940;28;20205;-84
2021/05/06 12:51:14;;;;;;;2.42;1.58;;;;;;;;;;5059683;28;20221;-85
2021/05/06 12:54:02;;;;;;;1.65;1.55;;;;;;;;;;5059055;28;20676;-84
2021/05/06 12:56:30;;;;;;;1.65;1.55;;;;;;;;;;5059295;28;20206;-84
2021/05/06 12:58:58;;;;;;;5.13;1.65;;;;;;;;;;5059184;28;20218;-85
2021/05/06 13:01:33;;;;;;;1.40;1.30;;;;;;;;;;5060090;28;20225;-84
2021/05/06 13:04:02;;;;;;;1.40;1.30;;;;;;;;;;5060441;28;20264;-85
2021/05/06 13:06:36;;;;;;;2.20;1.58;;;;;;;;;;5059802;28;20212;-84
2021/05/06 13:09:13;;;;;;;1.50;1.40;;;;;;;;;;5059836;28;20197;-85
2021/05/06 13:11:40;;;;;;;1.77;1.67;;;;;;;;;;5060153;28;20597;-85
2021/05/06 13:14:07;;;;;;;2.35;1.50;;;;;;;;;;5060540;28;20198;-85
2021/05/06 13:16:45;;;;;;;5.80;1.92;;;;;;;;;;5059882;28;20205;-85
2021/05/06 13:19:15;;;;;;;1.80;1.50;;;;;;;;;;5059660;28;20225;-85
2021/05/06 13:21:51;;;;;;;1.50;1.40;;;;;;;;;;5059751;28;20218;-84
2021/05/06 13:24:18;;;;;;;1.83;1.73;;;;;;;;;;5059655;28;20205;-85
2021/05/06 13:26:46;;;;;;;1.58;1.48;;;;;;;;;;5059178;28;20563;-84
2021/05/06 13:29:16;;;;;;;1.75;1.35;;;;;;;;;;5059866;28;20214;-83
2021/05/06 13:31:45;;;;;;;1.45;1.35;;;;;;;;;;5059252;28;20707;-84
2021/05/06 13:34:17;;;;;;;2.00;1.90;;;;;;;;;;5059402;28;20201;-85
2021/05/06 13:36:46;;;;;;;1.30;1.25;;;;;;;;;;5059598;28;20209;-84
2021/05/06 13:39:14;;;;;;;2.33;1.35;;;;;;;;;;5059616;28;20229;-84
2021/05/06 13:41:44;;;;;;;1.90;1.30;;;;;;;;;;5058936;28;20232;-84
2021/05/06 13:44:16;;;;;;;1.77;1.45;;;;;;;;;;5058866;28;20206;-84
2021/05/06 13:46:52;;;;;;;1.40;1.30;;;;;;;;;;5059587;28;20285;-83
2021/05/06 13:49:20;;;;;;;1.63;1.52;;;;;;;;;;5059221;28;20197;-84
2021/05/06 13:51:48;;;;;;;1.98;1.85;;;;;;;;;;5059847;28;20226;-83
2021/05/06 13:54:15;;;;;;;1.40;1.30;;;;;;;;;;5058062;28;20737;-84
2021/05/06 13:56:42;;;;;;;1.80;1.70;;;;;;;;;;5057985;28;20236;-83
2021/05/06 13:59:09;;;;;;;1.83;1.67;;;;;;;;;;5058251;28;20232;-84
2021/05/06 14:01:36;;;;;;;2.47;1.60;;;;;;;;;;5057953;28;20221;-83
2021/05/06 14:04:04;;;;;;;1.20;1.10;;;;;;;;;;5057959;28;20206;-84
2021/05/06 14:06:31;;;;;;;1.98;1.55;;;;;;;;;;5058221;28;20210;-84
2021/05/06 14:08:58;;;;;;;2.75;2.03;;;;;;;;;;5057515;28;20197;-84
2021/05/06 14:11:26;;;;;;;2.20;1.50;;;;;;;;;;5056180;28;20222;-84
2021/05/06 14:13:56;;;;;;;1.15;1.08;;;;;;;;;;5058348;28;20197;-83
2021/05/06 14:16:23;;;;;;;1.55;1.25;;;;;;;;;;5058267;28;20206;-84
2021/05/06 14:18:51;;;;;;;1.27;1.17;;;;;;;;;;5057956;28;20222;-83
2021/05/06 14:21:21;;;;;;;1.20;1.15;;;;;;;;;;5057980;28;20279;-83
2021/05/06 14:23:48;;;;;;;1.23;1.10;;;;;;;;;;5057828;28;20209;-83
2021/05/06 14:26:18;;;;;;;1.40;1.30;;;;;;;;;;5057377;28;20703;-83
2021/05/06 14:28:46;;;;;;;1.40;1.27;;;;;;;;;;5057286;28;20201;-83
2021/05/06 14:31:13;;;;;;;1.10;1.10;;;;;;;;;;5057934;28;20241;-83
2021/05/06 14:33:40;;;;;;;1.50;1.10;;;;;;;;;;5057516;28;20198;-83
2021/05/06 14:36:07;;;;;;;3.67;1.83;;;;;;;;;;5057216;28;20204;-83
2021/05/06 14:38:43;;;;;;;1.23;1.23;;;;;;;;;;5048055;28;20233;-84
2021/05/06 14:41:10;;;;;;;1.48;1.30;;;;;;;;;;5056994;28;20249;-84
2021/05/06 14:43:38;;;;;;;4.03;1.73;;;;;;;;;;5056852;28;20206;-85
2021/05/06 14:46:06;;;;;;;1.30;1.20;;;;;;;;;;5057942;28;20205;-84
2021/05/06 14:48:34;;;;;;;1.85;1.30;;;;;;;;;;5057404;28;20206;-85
2021/05/06 14:51:02;;;;;;;1.38;1.27;;;;;;;;;;5056651;28;20550;-85
2021/05/06 14:53:30;;;;;;;1.65;1.42;;;;;;;;;;5056812;28;20203;-84
2021/05/06 14:55:58;;;;;;;1.52;1.40;;;;;;;;;;5057577;28;20202;-84
2021/05/06 14:58:28;;;;;;;1.60;1.45;;;;;;;;;;5057255;28;20229;-83
2021/05/06 15:00:55;;;;;;;2.25;1.70;;;;;;;;;;5057586;28;20279;-83
2021/05/06 15:03:22;;;;;;;3.08;1.38;;;;;;;;;;5057576;28;20202;-83
2021/05/06 15:05:49;;;;;;;1.92;1.63;;;;;;;;;;5057087;28;20205;-83
2021/05/06 15:08:17;;;;;;;2.45;1.63;;;;;;;;;;5056802;28;20205;-82
2021/05/06 15:10:44;;;;;;;2.78;1.23;;;;;;;;;;5056012;28;20229;-83
2021/05/06 15:13:12;;;;;;;1.33;1.20;;;;;;;;;;5055539;28;20252;-82
2021/05/06 15:15:39;;;;;;;1.05;1.02;;;;;;;;;;5057519;28;20213;-82
2021/05/06 15:18:05;;;;;;;1.60;1.10;;;;;;;;;;5058944;28;20224;-82
2021/05/06 15:20:33;;;;;;;2.67;1.20;;;;;;;;;;5065073;28;20230;-82
2021/05/06 15:23:01;;;;;;;2.30;1.25;;;;;;;;;;5059844;28;20202;-82
2021/05/06 15:25:29;;;;;;;1.63;1.52;;;;;;;;;;5064024;28;20206;-81
2021/05/06 15:27:56;;;;;;;2.67;1.30;;;;;;;;;;5068907;28;20205;-82
2021/05/06 15:30:26;;;;;;;1.40;1.30;;;;;;;;;;5064489;28;20229;-82
2021/05/06 15:32:53;;;;;;;1.45;1.30;;;;;;;;;;5068124;28;20286;-82
2021/05/06 15:35:20;;;;;;;1.83;1.10;;;;;;;;;;5068620;28;20212;-81
2021/05/06 15:37:47;;;;;;;1.55;1.45;;;;;;;;;;5069048;28;20198;-81
2021/05/06 15:40:16;;;;;;;0.80;0.80;;;;;;;;;;5058984;28;20229;-81
2021/05/06 15:42:46;;;;;;;1.48;1.38;;;;;;;;;;5055925;28;20212;-82
2021/05/06 15:45:14;;;;;;;1.20;1.00;;;;;;;;;;5055844;28;20198;-81
2021/05/06 15:47:41;;;;;;;1.30;1.20;;;;;;;;;;5056116;28;20672;-82
2021/05/06 15:50:11;;;;;;;2.35;1.30;;;;;;;;;;5056275;28;20201;-82
2021/05/06 15:52:39;;;;;;;2.53;1.83;;;;;;;;;;5056809;28;20197;-82
2021/05/06 15:55:08;;;;;;;2.20;1.40;;;;;;;;;;5055533;28;20208;-82
2021/05/06 15:57:36;;;;;;;2.60;1.60;;;;;;;;;;5055676;28;20679;-82
2021/05/06 16:00:05;;;;;;;1.63;1.20;;;;;;;;;;5056117;28;20738;-83
2021/05/06 16:02:32;;;;;;;1.30;1.20;;;;;;;;;;5056163;28;20202;-84
2021/05/06 16:05:00;;;;;;;2.20;1.83;;;;;;;;;;5055660;28;20294;-82
2021/05/06 16:07:36;;;;;;;7.57;1.70;;;;;;;;;;5056788;28;20293;-83
2021/05/06 16:10:05;;;;;;;1.52;1.38;;;;;;;;;;5055748;28;20198;-82
2021/05/06 16:12:32;;;;;;;1.65;1.55;;;;;;;;;;5056109;28;20252;-81
2021/05/06 16:15:00;;;;;;;2.20;1.20;;;;;;;;;;5056209;28;20391;-82
2021/05/06 16:17:27;;;;;;;1.85;1.20;;;;;;;;;;5056036;28;20206;-82
2021/05/06 16:19:54;;;;;;;1.92;1.50;;;;;;;;;;5055534;28;20236;-84
2021/05/06 16:22:22;;;;;;;1.48;1.30;;;;;;;;;;5055886;28;20233;-81
2021/05/06 16:24:51;;;;;;;1.58;1.48;;;;;;;;;;5055224;28;20202;-82
2021/05/06 16:27:18;;;;;;;4.03;1.83;;;;;;;;;;5055836;28;20668;-83
2021/05/06 16:29:45;;;;;;;2.58;1.90;;;;;;;;;;5055135;28;20202;-82
2021/05/06 16:32:12;;;;;;;1.45;1.35;;;;;;;;;;5054500;28;20630;-84
2021/05/06 16:34:41;;;;;;;2.25;1.60;;;;;;;;;;5056341;28;20269;-83
2021/05/06 16:37:11;;;;;;;1.52;1.40;;;;;;;;;;5059131;28;20202;-83
2021/05/06 16:39:47;;;;;;;1.60;1.50;;;;;;;;;;5062819;28;20225;-83
2021/05/06 16:42:17;;;;;;;1.75;1.17;;;;;;;;;;5059630;28;20232;-83
2021/05/06 16:44:45;;;;;;;1.60;1.20;;;;;;;;;;5059156;28;20198;-83
2021/05/06 16:47:12;;;;;;;1.88;1.67;;;;;;;;;;5059783;28;20205;-83
2021/05/06 16:49:39;;;;;;;2.50;1.30;;;;;;;;;;5059518;28;20655;-82
2021/05/06 16:52:08;;;;;;;1.65;1.45;;;;;;;;;;5059396;28;20218;-83
2021/05/06 16:54:35;;;;;;;1.38;1.27;;;;;;;;;;5059535;28;20672;-83
2021/05/06 16:57:03;;;;;;;1.23;1.10;;;;;;;;;;5059168;28;20206;-83
2021/05/06 16:59:30;;;;;;;2.50;1.80;;;;;;;;;;5058296;28;20283;-83
2021/05/06 17:01:58;;;;;;;3.08;1.45;;;;;;;;;;5059055;28;20307;-83
2021/05/06 17:04:25;;;;;;;2.75;1.30;;;;;;;;;;5058647;28;20198;-83
2021/05/06 17:06:55;;;;;;;3.65;1.40;;;;;;;;;;5059037;28;20197;-83
2021/05/06 17:09:22;;;;;;;2.40;1.45;;;;;;;;;;5058957;28;20202;-82
2021/05/06 17:11:51;;;;;;;2.13;1.30;;;;;;;;;;5058732;28;20313;-83
2021/05/06 17:14:22;;;;;;;1.30;1.20;;;;;;;;;;5058494;28;20288;-82
2021/05/06 17:16:49;;;;;;;1.45;1.35;;;;;;;;;;5058931;28;20261;-82
2021/05/06 17:19:16;;;;;;;2.80;1.52;;;;;;;;;;5058764;28;20198;-82
2021/05/06 17:21:43;;;;;;;2.10;1.65;;;;;;;;;;5059119;28;20221;-82
2021/05/06 17:24:10;;;;;;;1.55;1.15;;;;;;;;;;5058586;28;20208;-82
2021/05/06 17:26:37;;;;;;;2.15;1.40;;;;;;;;;;5058433;28;20212;-82
2021/05/06 17:29:04;;;;;;;1.75;1.52;;;;;;;;;;5058882;28;20210;-82
2021/05/06 17:31:31;;;;;;;1.50;1.40;;;;;;;;;;5058274;28;20226;-83
2021/05/06 17:34:00;;;;;;;2.00;1.63;;;;;;;;;;5058697;28;20209;-83